sensor_id;sensor_type;location;lat;lon;timestamp;temperature;humidity
23681;DHT22;62915;50.832;4.462;2024-02-15T00:01:02;14.00;99.90
23681;DHT22;62915;50.832;4.462;2024-02-15T00:03:30;14.00;99.90
23681;DHT22;62915;50.832;4.462;2024-02-15T00:05:57;14.00;99.90
23681;DHT22;62915;50.832;4.462;2024-02-15T00:08:23;14.10;99.90
23681;DHT22;62915;50.832;4.462;2024-02-15T00:10:52;14.10;99.90
23681;DHT22;62915;50.832;4.462;2024-02-15T00:13:19;14.10;99.90
23681;DHT22;62915;50.832;4.462;2024-02-15T00:15:45;14.00;99.90
23681;DHT22;62915;50.832;4.462;2024-02-15T00:18:14;14.00;99.90
23681;DHT22;62915;50.832;4.462;2024-02-15T00:20:39;14.00;99.90
23681;DHT22;62915;50.832;4.462;2024-02-15T00:23:05;14.10;99.90
23681;DHT22;62915;50.832;4.462;2024-02-15T00:25:32;14.10;99.90
23681;DHT22;62915;50.832;4.462;2024-02-15T00:27:59;14.10;99.90
23681;DHT22;62915;50.832;4.462;2024-02-15T00:30:28;14.10;99.90
23681;DHT22;62915;50.832;4.462;2024-02-15T00:32:54;14.00;99.90
23681;DHT22;62915;50.832;4.462;2024-02-15T00:35:20;14.00;99.90
23681;DHT22;62915;50.832;4.462;2024-02-15T00:37:46;14.00;99.90
23681;DHT22;62915;50.832;4.462;2024-02-15T00:40:12;14.00;99.90
23681;DHT22;62915;50.832;4.462;2024-02-15T00:42:38;14.00;99.90
23681;DHT22;62915;50.832;4.462;2024-02-15T00:45:05;14.00;99.90
23681;DHT22;62915;50.832;4.462;2024-02-15T00:47:31;14.00;99.90
23681;DHT22;62915;50.832;4.462;2024-02-15T00:49:58;14.00;99.90
23681;DHT22;62915;50.832;4.462;2024-02-15T00:52:24;14.10;99.90
23681;DHT22;62915;50.832;4.462;2024-02-15T00:54:51;14.10;99.90
23681;DHT22;62915;50.832;4.462;2024-02-15T00:57:16;14.10;99.90
23681;DHT22;62915;50.832;4.462;2024-02-15T00:59:43;14.10;99.90
23681;DHT22;62915;50.832;4.462;2024-02-15T01:02:09;14.20;99.90
23681;DHT22;62915;50.832;4.462;2024-02-15T01:04:35;14.10;99.90
23681;DHT22;62915;50.832;4.462;2024-02-15T01:07:01;14.10;99.90
23681;DHT22;62915;50.832;4.462;2024-02-15T01:09:26;14.10;99.90
23681;DHT22;62915;50.832;4.462;2024-02-15T01:11:52;14.20;99.90
23681;DHT22;62915;50.832;4.462;2024-02-15T01:14:18;14.10;99.90
23681;DHT22;62915;50.832;4.462;2024-02-15T01:16:44;14.00;99.90
23681;DHT22;62915;50.832;4.462;2024-02-15T01:19:10;13.90;99.90
23681;DHT22;62915;50.832;4.462;2024-02-15T01:21:36;13.90;99.90
23681;DHT22;62915;50.832;4.462;2024-02-15T01:24:02;13.90;99.90
23681;DHT22;62915;50.832;4.462;2024-02-15T01:26:29;14.00;99.90
23681;DHT22;62915;50.832;4.462;2024-02-15T01:28:55;14.10;99.90
23681;DHT22;62915;50.832;4.462;2024-02-15T01:31:21;14.10;99.90
23681;DHT22;62915;50.832;4.462;2024-02-15T01:33:48;14.00;99.90
23681;DHT22;62915;50.832;4.462;2024-02-15T01:36:15;14.10;99.90
23681;DHT22;62915;50.832;4.462;2024-02-15T01:38:44;14.00;99.90
23681;DHT22;62915;50.832;4.462;2024-02-15T01:41:10;14.10;99.90
23681;DHT22;62915;50.832;4.462;2024-02-15T01:43:36;14.10;99.90
23681;DHT22;62915;50.832;4.462;2024-02-15T01:46:08;14.20;99.90
23681;DHT22;62915;50.832;4.462;2024-02-15T01:48:36;14.20;99.90
23681;DHT22;62915;50.832;4.462;2024-02-15T01:51:02;14.10;99.90
23681;DHT22;62915;50.832;4.462;2024-02-15T01:53:29;14.00;99.90
23681;DHT22;62915;50.832;4.462;2024-02-15T01:55:57;14.00;99.90
23681;DHT22;62915;50.832;4.462;2024-02-15T01:58:27;13.90;99.90
23681;DHT22;62915;50.832;4.462;2024-02-15T02:00:56;13.90;99.90
23681;DHT22;62915;50.832;4.462;2024-02-15T02:03:22;14.00;99.90
23681;DHT22;62915;50.832;4.462;2024-02-15T02:05:48;13.90;99.90
23681;DHT22;62915;50.832;4.462;2024-02-15T02:08:14;13.80;99.90
23681;DHT22;62915;50.832;4.462;2024-02-15T02:10:40;13.90;99.90
23681;DHT22;62915;50.832;4.462;2024-02-15T02:13:07;13.90;99.90
23681;DHT22;62915;50.832;4.462;2024-02-15T02:15:33;14.00;99.90
23681;DHT22;62915;50.832;4.462;2024-02-15T02:18:00;14.00;99.90
23681;DHT22;62915;50.832;4.462;2024-02-15T02:20:26;14.00;99.90
23681;DHT22;62915;50.832;4.462;2024-02-15T02:23:03;14.00;99.90
23681;DHT22;62915;50.832;4.462;2024-02-15T02:25:32;14.00;99.90
23681;DHT22;62915;50.832;4.462;2024-02-15T02:27:59;14.00;99.90
23681;DHT22;62915;50.832;4.462;2024-02-15T02:30:26;14.00;99.90
23681;DHT22;62915;50.832;4.462;2024-02-15T02:32:55;14.00;99.90
23681;DHT22;62915;50.832;4.462;2024-02-15T02:35:23;14.00;99.90
23681;DHT22;62915;50.832;4.462;2024-02-15T02:37:49;14.00;99.90
23681;DHT22;62915;50.832;4.462;2024-02-15T02:40:15;13.90;99.90
23681;DHT22;62915;50.832;4.462;2024-02-15T02:42:56;14.00;99.90
23681;DHT22;62915;50.832;4.462;2024-02-15T02:45:24;14.00;99.90
23681;DHT22;62915;50.832;4.462;2024-02-15T02:47:51;13.90;99.90
23681;DHT22;62915;50.832;4.462;2024-02-15T02:50:18;14.00;99.90
23681;DHT22;62915;50.832;4.462;2024-02-15T02:52:44;14.10;99.90
23681;DHT22;62915;50.832;4.462;2024-02-15T02:55:10;14.00;99.90
23681;DHT22;62915;50.832;4.462;2024-02-15T02:57:37;14.00;99.90
23681;DHT22;62915;50.832;4.462;2024-02-15T03:00:05;14.00;99.90
23681;DHT22;62915;50.832;4.462;2024-02-15T03:02:36;13.90;99.90
23681;DHT22;62915;50.832;4.462;2024-02-15T03:05:03;13.80;99.90
23681;DHT22;62915;50.832;4.462;2024-02-15T03:07:32;13.80;99.90
23681;DHT22;62915;50.832;4.462;2024-02-15T03:09:58;13.80;99.90
23681;DHT22;62915;50.832;4.462;2024-02-15T03:12:24;13.90;99.90
23681;DHT22;62915;50.832;4.462;2024-02-15T03:14:52;14.00;99.90
23681;DHT22;62915;50.832;4.462;2024-02-15T03:17:18;14.00;99.90
23681;DHT22;62915;50.832;4.462;2024-02-15T03:19:43;14.00;99.90
23681;DHT22;62915;50.832;4.462;2024-02-15T03:22:09;14.00;99.90
23681;DHT22;62915;50.832;4.462;2024-02-15T03:24:36;13.90;99.90
23681;DHT22;62915;50.832;4.462;2024-02-15T03:27:02;14.00;99.90
23681;DHT22;62915;50.832;4.462;2024-02-15T03:29:28;13.80;99.90
23681;DHT22;62915;50.832;4.462;2024-02-15T03:31:54;13.80;99.90
23681;DHT22;62915;50.832;4.462;2024-02-15T03:34:21;13.80;99.90
23681;DHT22;62915;50.832;4.462;2024-02-15T03:36:47;13.70;99.90
23681;DHT22;62915;50.832;4.462;2024-02-15T03:39:19;13.80;99.90
23681;DHT22;62915;50.832;4.462;2024-02-15T03:41:46;13.90;99.90
23681;DHT22;62915;50.832;4.462;2024-02-15T03:44:12;13.80;99.90
23681;DHT22;62915;50.832;4.462;2024-02-15T03:46:38;13.70;99.90
23681;DHT22;62915;50.832;4.462;2024-02-15T03:49:03;13.70;99.90
23681;DHT22;62915;50.832;4.462;2024-02-15T03:51:29;13.80;99.90
23681;DHT22;62915;50.832;4.462;2024-02-15T03:53:55;13.80;99.90
23681;DHT22;62915;50.832;4.462;2024-02-15T03:56:21;13.90;99.90
23681;DHT22;62915;50.832;4.462;2024-02-15T03:58:47;13.80;99.90
23681;DHT22;62915;50.832;4.462;2024-02-15T04:01:12;13.80;99.90
23681;DHT22;62915;50.832;4.462;2024-02-15T04:03:40;13.90;99.90
23681;DHT22;62915;50.832;4.462;2024-02-15T04:06:06;13.80;99.90
23681;DHT22;62915;50.832;4.462;2024-02-15T04:08:32;13.80;99.90
23681;DHT22;62915;50.832;4.462;2024-02-15T04:10:59;13.80;99.90
23681;DHT22;62915;50.832;4.462;2024-02-15T04:13:24;13.90;99.90
23681;DHT22;62915;50.832;4.462;2024-02-15T04:15:50;13.80;99.90
23681;DHT22;62915;50.832;4.462;2024-02-15T04:18:19;13.80;99.90
23681;DHT22;62915;50.832;4.462;2024-02-15T04:20:45;13.80;99.90
23681;DHT22;62915;50.832;4.462;2024-02-15T04:23:12;13.80;99.90
23681;DHT22;62915;50.832;4.462;2024-02-15T04:25:38;13.70;99.90
23681;DHT22;62915;50.832;4.462;2024-02-15T04:28:04;13.70;99.90
23681;DHT22;62915;50.832;4.462;2024-02-15T04:30:30;13.70;99.90
23681;DHT22;62915;50.832;4.462;2024-02-15T04:32:57;13.70;99.90
23681;DHT22;62915;50.832;4.462;2024-02-15T04:35:23;13.70;99.90
23681;DHT22;62915;50.832;4.462;2024-02-15T04:37:50;13.60;99.90
23681;DHT22;62915;50.832;4.462;2024-02-15T04:40:17;13.60;99.90
23681;DHT22;62915;50.832;4.462;2024-02-15T04:42:43;13.70;99.90
23681;DHT22;62915;50.832;4.462;2024-02-15T04:45:10;13.70;99.90
23681;DHT22;62915;50.832;4.462;2024-02-15T04:47:39;13.70;99.90
23681;DHT22;62915;50.832;4.462;2024-02-15T04:50:08;13.70;99.90
23681;DHT22;62915;50.832;4.462;2024-02-15T04:52:34;13.70;99.90
23681;DHT22;62915;50.832;4.462;2024-02-15T04:55:01;13.60;99.90
23681;DHT22;62915;50.832;4.462;2024-02-15T04:57:30;13.70;99.90
23681;DHT22;62915;50.832;4.462;2024-02-15T04:59:56;13.70;99.90
23681;DHT22;62915;50.832;4.462;2024-02-15T05:02:22;13.70;99.90
23681;DHT22;62915;50.832;4.462;2024-02-15T05:04:50;13.70;99.90
23681;DHT22;62915;50.832;4.462;2024-02-15T05:07:22;13.70;99.90
23681;DHT22;62915;50.832;4.462;2024-02-15T05:09:50;13.70;99.90
23681;DHT22;62915;50.832;4.462;2024-02-15T05:12:24;13.50;99.90
23681;DHT22;62915;50.832;4.462;2024-02-15T05:14:50;13.60;99.90
23681;DHT22;62915;50.832;4.462;2024-02-15T05:17:17;13.70;99.90
23681;DHT22;62915;50.832;4.462;2024-02-15T05:19:43;13.70;99.90
23681;DHT22;62915;50.832;4.462;2024-02-15T05:22:09;13.70;99.90
23681;DHT22;62915;50.832;4.462;2024-02-15T05:24:37;13.60;99.90
23681;DHT22;62915;50.832;4.462;2024-02-15T05:27:04;13.70;99.90
23681;DHT22;62915;50.832;4.462;2024-02-15T05:29:31;13.80;99.90
23681;DHT22;62915;50.832;4.462;2024-02-15T05:32:00;13.80;99.90
23681;DHT22;62915;50.832;4.462;2024-02-15T05:34:26;13.70;99.90
23681;DHT22;62915;50.832;4.462;2024-02-15T05:36:52;13.70;99.90
23681;DHT22;62915;50.832;4.462;2024-02-15T05:39:18;13.80;99.90
23681;DHT22;62915;50.832;4.462;2024-02-15T05:41:47;13.80;99.90
23681;DHT22;62915;50.832;4.462;2024-02-15T05:44:13;13.70;99.90
23681;DHT22;62915;50.832;4.462;2024-02-15T05:46:44;13.80;99.90
23681;DHT22;62915;50.832;4.462;2024-02-15T05:49:10;13.70;99.90
23681;DHT22;62915;50.832;4.462;2024-02-15T05:51:41;13.60;99.90
23681;DHT22;62915;50.832;4.462;2024-02-15T05:54:07;13.60;99.90
23681;DHT22;62915;50.832;4.462;2024-02-15T05:56:33;13.60;99.90
23681;DHT22;62915;50.832;4.462;2024-02-15T05:58:58;13.50;99.90
23681;DHT22;62915;50.832;4.462;2024-02-15T06:01:24;13.50;99.90
23681;DHT22;62915;50.832;4.462;2024-02-15T06:03:50;13.50;99.90
23681;DHT22;62915;50.832;4.462;2024-02-15T06:06:20;13.60;99.90
23681;DHT22;62915;50.832;4.462;2024-02-15T06:08:46;13.60;99.90
23681;DHT22;62915;50.832;4.462;2024-02-15T06:11:12;13.70;99.90
23681;DHT22;62915;50.832;4.462;2024-02-15T06:13:40;13.60;99.90
23681;DHT22;62915;50.832;4.462;2024-02-15T06:16:06;13.80;99.90
23681;DHT22;62915;50.832;4.462;2024-02-15T06:18:35;13.80;99.90
23681;DHT22;62915;50.832;4.462;2024-02-15T06:21:01;13.80;99.90
23681;DHT22;62915;50.832;4.462;2024-02-15T06:23:27;13.90;99.90
23681;DHT22;62915;50.832;4.462;2024-02-15T06:25:54;13.80;99.90
23681;DHT22;62915;50.832;4.462;2024-02-15T06:28:21;13.70;99.90
23681;DHT22;62915;50.832;4.462;2024-02-15T06:31:09;13.70;99.90
23681;DHT22;62915;50.832;4.462;2024-02-15T06:33:54;13.60;99.90
23681;DHT22;62915;50.832;4.462;2024-02-15T06:36:54;13.70;99.90
23681;DHT22;62915;50.832;4.462;2024-02-15T06:39:39;13.70;99.90
23681;DHT22;62915;50.832;4.462;2024-02-15T06:42:16;13.70;99.90
23681;DHT22;62915;50.832;4.462;2024-02-15T06:44:46;13.70;99.90
23681;DHT22;62915;50.832;4.462;2024-02-15T06:47:12;13.60;99.90
23681;DHT22;62915;50.832;4.462;2024-02-15T06:49:41;13.70;99.90
23681;DHT22;62915;50.832;4.462;2024-02-15T06:52:10;13.70;99.90
23681;DHT22;62915;50.832;4.462;2024-02-15T06:54:41;13.60;99.90
23681;DHT22;62915;50.832;4.462;2024-02-15T06:57:07;13.60;99.90
23681;DHT22;62915;50.832;4.462;2024-02-15T06:59:33;13.60;99.90
23681;DHT22;62915;50.832;4.462;2024-02-15T07:02:03;13.60;99.90
23681;DHT22;62915;50.832;4.462;2024-02-15T07:04:30;13.60;99.90
23681;DHT22;62915;50.832;4.462;2024-02-15T07:06:57;13.60;99.90
23681;DHT22;62915;50.832;4.462;2024-02-15T07:09:25;13.60;99.90
23681;DHT22;62915;50.832;4.462;2024-02-15T07:11:54;13.60;99.90
23681;DHT22;62915;50.832;4.462;2024-02-15T07:14:20;13.60;99.90
23681;DHT22;62915;50.832;4.462;2024-02-15T07:16:49;13.70;99.90
23681;DHT22;62915;50.832;4.462;2024-02-15T07:19:16;13.70;99.90
23681;DHT22;62915;50.832;4.462;2024-02-15T07:21:42;13.70;99.90
23681;DHT22;62915;50.832;4.462;2024-02-15T07:24:09;13.70;99.90
23681;DHT22;62915;50.832;4.462;2024-02-15T07:26:37;13.70;99.90
23681;DHT22;62915;50.832;4.462;2024-02-15T07:29:03;13.70;99.90
23681;DHT22;62915;50.832;4.462;2024-02-15T07:31:33;13.70;99.90
23681;DHT22;62915;50.832;4.462;2024-02-15T07:33:59;13.80;99.90
23681;DHT22;62915;50.832;4.462;2024-02-15T07:36:26;13.80;99.90
23681;DHT22;62915;50.832;4.462;2024-02-15T07:38:54;13.80;99.90
23681;DHT22;62915;50.832;4.462;2024-02-15T07:41:23;13.80;99.90
23681;DHT22;62915;50.832;4.462;2024-02-15T07:43:50;13.70;99.90
23681;DHT22;62915;50.832;4.462;2024-02-15T07:46:16;13.70;99.90
23681;DHT22;62915;50.832;4.462;2024-02-15T07:48:45;13.80;99.90
23681;DHT22;62915;50.832;4.462;2024-02-15T07:51:16;14.00;99.90
23681;DHT22;62915;50.832;4.462;2024-02-15T07:53:44;13.90;99.90
23681;DHT22;62915;50.832;4.462;2024-02-15T07:56:10;14.00;99.90
23681;DHT22;62915;50.832;4.462;2024-02-15T07:58:40;14.00;99.90
23681;DHT22;62915;50.832;4.462;2024-02-15T08:01:14;14.10;99.90
23681;DHT22;62915;50.832;4.462;2024-02-15T08:03:41;14.10;99.90
23681;DHT22;62915;50.832;4.462;2024-02-15T08:06:13;14.20;99.90
23681;DHT22;62915;50.832;4.462;2024-02-15T08:08:45;14.20;99.90
23681;DHT22;62915;50.832;4.462;2024-02-15T08:11:12;14.20;99.90
23681;DHT22;62915;50.832;4.462;2024-02-15T08:13:46;14.20;99.90
23681;DHT22;62915;50.832;4.462;2024-02-15T08:16:19;14.20;99.90
23681;DHT22;62915;50.832;4.462;2024-02-15T08:18:46;14.20;99.90
23681;DHT22;62915;50.832;4.462;2024-02-15T08:21:12;14.20;99.90
23681;DHT22;62915;50.832;4.462;2024-02-15T08:23:38;14.10;99.90
23681;DHT22;62915;50.832;4.462;2024-02-15T08:26:04;14.20;99.90
23681;DHT22;62915;50.832;4.462;2024-02-15T08:28:30;14.20;99.90
23681;DHT22;62915;50.832;4.462;2024-02-15T08:30:56;14.30;99.90
23681;DHT22;62915;50.832;4.462;2024-02-15T08:33:25;14.30;99.90
23681;DHT22;62915;50.832;4.462;2024-02-15T08:35:54;14.40;99.90
23681;DHT22;62915;50.832;4.462;2024-02-15T08:38:24;14.40;99.90
23681;DHT22;62915;50.832;4.462;2024-02-15T08:40:50;14.40;99.90
23681;DHT22;62915;50.832;4.462;2024-02-15T08:43:16;14.40;99.90
23681;DHT22;62915;50.832;4.462;2024-02-15T08:45:42;14.40;99.90
23681;DHT22;62915;50.832;4.462;2024-02-15T08:48:08;14.50;99.90
23681;DHT22;62915;50.832;4.462;2024-02-15T08:50:34;14.50;99.90
23681;DHT22;62915;50.832;4.462;2024-02-15T08:53:02;14.60;99.90
23681;DHT22;62915;50.832;4.462;2024-02-15T08:55:32;14.70;99.90
23681;DHT22;62915;50.832;4.462;2024-02-15T08:57:57;14.80;99.90
23681;DHT22;62915;50.832;4.462;2024-02-15T09:00:25;14.80;99.90
23681;DHT22;62915;50.832;4.462;2024-02-15T09:02:52;14.80;99.90
23681;DHT22;62915;50.832;4.462;2024-02-15T09:05:18;14.80;99.90
23681;DHT22;62915;50.832;4.462;2024-02-15T09:07:45;14.80;99.90
23681;DHT22;62915;50.832;4.462;2024-02-15T09:10:15;14.80;99.90
23681;DHT22;62915;50.832;4.462;2024-02-15T09:12:45;14.90;99.90
23681;DHT22;62915;50.832;4.462;2024-02-15T09:15:14;14.80;99.90
23681;DHT22;62915;50.832;4.462;2024-02-15T09:17:40;15.00;99.90
23681;DHT22;62915;50.832;4.462;2024-02-15T09:20:10;15.00;99.90
23681;DHT22;62915;50.832;4.462;2024-02-15T09:22:58;15.00;99.90
23681;DHT22;62915;50.832;4.462;2024-02-15T09:25:23;15.00;99.90
23681;DHT22;62915;50.832;4.462;2024-02-15T09:27:50;15.10;99.90
23681;DHT22;62915;50.832;4.462;2024-02-15T09:30:16;15.10;99.90
23681;DHT22;62915;50.832;4.462;2024-02-15T09:32:43;15.20;99.90
23681;DHT22;62915;50.832;4.462;2024-02-15T09:35:10;15.20;99.90
23681;DHT22;62915;50.832;4.462;2024-02-15T09:37:44;15.10;99.90
23681;DHT22;62915;50.832;4.462;2024-02-15T09:40:11;15.20;99.90
23681;DHT22;62915;50.832;4.462;2024-02-15T09:42:38;15.20;99.90
23681;DHT22;62915;50.832;4.462;2024-02-15T09:45:05;15.30;99.90
23681;DHT22;62915;50.832;4.462;2024-02-15T09:47:35;15.40;99.90
23681;DHT22;62915;50.832;4.462;2024-02-15T09:50:12;15.60;99.90
23681;DHT22;62915;50.832;4.462;2024-02-15T09:52:42;15.80;99.90
23681;DHT22;62915;50.832;4.462;2024-02-15T09:55:09;16.00;99.90
23681;DHT22;62915;50.832;4.462;2024-02-15T09:57:39;16.20;99.90
23681;DHT22;62915;50.832;4.462;2024-02-15T10:00:06;16.30;99.90
23681;DHT22;62915;50.832;4.462;2024-02-15T10:02:40;16.40;99.90
23681;DHT22;62915;50.832;4.462;2024-02-15T10:05:08;16.50;99.90
23681;DHT22;62915;50.832;4.462;2024-02-15T10:07:43;16.50;99.90
23681;DHT22;62915;50.832;4.462;2024-02-15T10:10:27;16.50;99.90
23681;DHT22;62915;50.832;4.462;2024-02-15T10:12:54;16.50;99.90
23681;DHT22;62915;50.832;4.462;2024-02-15T10:15:38;16.50;99.90
23681;DHT22;62915;50.832;4.462;2024-02-15T10:18:07;16.60;99.90
23681;DHT22;62915;50.832;4.462;2024-02-15T10:20:34;16.60;99.90
23681;DHT22;62915;50.832;4.462;2024-02-15T10:23:08;16.50;99.90
23681;DHT22;62915;50.832;4.462;2024-02-15T10:25:35;16.50;99.90
23681;DHT22;62915;50.832;4.462;2024-02-15T10:28:05;16.60;99.90
23681;DHT22;62915;50.832;4.462;2024-02-15T10:30:38;16.60;99.90
23681;DHT22;62915;50.832;4.462;2024-02-15T10:33:05;16.70;99.90
23681;DHT22;62915;50.832;4.462;2024-02-15T10:35:33;16.80;99.90
23681;DHT22;62915;50.832;4.462;2024-02-15T10:38:09;16.90;99.90
23681;DHT22;62915;50.832;4.462;2024-02-15T10:40:36;17.10;99.90
23681;DHT22;62915;50.832;4.462;2024-02-15T10:43:05;17.10;99.90
23681;DHT22;62915;50.832;4.462;2024-02-15T10:45:32;17.30;99.90
23681;DHT22;62915;50.832;4.462;2024-02-15T10:47:58;17.40;99.90
23681;DHT22;62915;50.832;4.462;2024-02-15T10:50:24;17.50;99.90
23681;DHT22;62915;50.832;4.462;2024-02-15T10:52:58;17.60;99.90
23681;DHT22;62915;50.832;4.462;2024-02-15T10:55:40;17.80;99.90
23681;DHT22;62915;50.832;4.462;2024-02-15T10:58:12;17.80;99.90
23681;DHT22;62915;50.832;4.462;2024-02-15T11:00:44;17.80;99.90
23681;DHT22;62915;50.832;4.462;2024-02-15T11:03:25;17.70;99.90
23681;DHT22;62915;50.832;4.462;2024-02-15T11:05:52;17.50;99.90
23681;DHT22;62915;50.832;4.462;2024-02-15T11:08:21;17.20;99.90
23681;DHT22;62915;50.832;4.462;2024-02-15T11:10:48;17.10;99.90
23681;DHT22;62915;50.832;4.462;2024-02-15T11:13:14;17.00;99.90
23681;DHT22;62915;50.832;4.462;2024-02-15T11:15:43;17.00;99.90
23681;DHT22;62915;50.832;4.462;2024-02-15T11:18:46;17.10;99.90
23681;DHT22;62915;50.832;4.462;2024-02-15T11:24:50;16.80;99.90
23681;DHT22;62915;50.832;4.462;2024-02-15T11:27:28;16.80;99.90
23681;DHT22;62915;50.832;4.462;2024-02-15T11:29:58;16.70;99.90
23681;DHT22;62915;50.832;4.462;2024-02-15T11:32:48;16.70;99.90
23681;DHT22;62915;50.832;4.462;2024-02-15T11:35:22;16.70;99.90
23681;DHT22;62915;50.832;4.462;2024-02-15T11:42:54;16.90;99.90
23681;DHT22;62915;50.832;4.462;2024-02-15T11:45:20;16.80;99.90
23681;DHT22;62915;50.832;4.462;2024-02-15T11:47:48;16.80;99.90
23681;DHT22;62915;50.832;4.462;2024-02-15T11:50:17;16.70;99.90
23681;DHT22;62915;50.832;4.462;2024-02-15T11:52:49;16.80;99.90
23681;DHT22;62915;50.832;4.462;2024-02-15T11:55:20;16.80;99.90
23681;DHT22;62915;50.832;4.462;2024-02-15T11:58:00;16.80;99.90
23681;DHT22;62915;50.832;4.462;2024-02-15T12:00:35;16.80;99.90
23681;DHT22;62915;50.832;4.462;2024-02-15T12:03:21;16.90;99.90
23681;DHT22;62915;50.832;4.462;2024-02-15T12:06:06;16.90;99.90
23681;DHT22;62915;50.832;4.462;2024-02-15T12:08:52;17.00;99.90
23681;DHT22;62915;50.832;4.462;2024-02-15T12:11:37;17.20;99.90
23681;DHT22;62915;50.832;4.462;2024-02-15T12:14:21;17.20;99.90
23681;DHT22;62915;50.832;4.462;2024-02-15T12:17:08;17.20;99.90
23681;DHT22;62915;50.832;4.462;2024-02-15T12:19:54;17.10;99.90
23681;DHT22;62915;50.832;4.462;2024-02-15T12:22:31;17.10;99.90
23681;DHT22;62915;50.832;4.462;2024-02-15T12:24:58;17.10;99.90
23681;DHT22;62915;50.832;4.462;2024-02-15T12:27:25;17.10;99.90
23681;DHT22;62915;50.832;4.462;2024-02-15T12:29:59;17.00;99.90
23681;DHT22;62915;50.832;4.462;2024-02-15T12:32:26;17.00;99.90
23681;DHT22;62915;50.832;4.462;2024-02-15T12:34:53;17.00;99.90
23681;DHT22;62915;50.832;4.462;2024-02-15T12:37:34;17.10;99.90
23681;DHT22;62915;50.832;4.462;2024-02-15T12:40:10;17.10;99.90
23681;DHT22;62915;50.832;4.462;2024-02-15T12:42:39;17.20;99.90
23681;DHT22;62915;50.832;4.462;2024-02-15T12:45:05;17.10;99.90
23681;DHT22;62915;50.832;4.462;2024-02-15T12:47:33;17.20;99.90
23681;DHT22;62915;50.832;4.462;2024-02-15T12:50:13;17.20;99.90
23681;DHT22;62915;50.832;4.462;2024-02-15T12:52:39;17.20;99.90
23681;DHT22;62915;50.832;4.462;2024-02-15T12:55:16;17.20;99.90
23681;DHT22;62915;50.832;4.462;2024-02-15T12:57:48;17.30;99.90
23681;DHT22;62915;50.832;4.462;2024-02-15T13:00:20;17.40;99.90
23681;DHT22;62915;50.832;4.462;2024-02-15T13:02:50;17.30;99.90
23681;DHT22;62915;50.832;4.462;2024-02-15T13:05:17;17.40;99.90
23681;DHT22;62915;50.832;4.462;2024-02-15T13:07:51;17.40;99.90
23681;DHT22;62915;50.832;4.462;2024-02-15T13:10:17;17.40;99.90
23681;DHT22;62915;50.832;4.462;2024-02-15T13:12:45;17.50;99.90
23681;DHT22;62915;50.832;4.462;2024-02-15T13:15:16;17.50;99.90
23681;DHT22;62915;50.832;4.462;2024-02-15T13:17:47;17.40;99.90
23681;DHT22;62915;50.832;4.462;2024-02-15T13:20:22;17.40;99.90
23681;DHT22;62915;50.832;4.462;2024-02-15T13:22:58;17.40;99.90
23681;DHT22;62915;50.832;4.462;2024-02-15T13:25:28;17.60;99.90
23681;DHT22;62915;50.832;4.462;2024-02-15T13:27:55;17.60;99.90
23681;DHT22;62915;50.832;4.462;2024-02-15T13:30:22;17.70;99.90
23681;DHT22;62915;50.832;4.462;2024-02-15T13:32:52;17.80;99.90
23681;DHT22;62915;50.832;4.462;2024-02-15T13:35:20;17.90;99.90
23681;DHT22;62915;50.832;4.462;2024-02-15T13:37:49;17.90;99.90
23681;DHT22;62915;50.832;4.462;2024-02-15T13:40:15;17.90;99.90
23681;DHT22;62915;50.832;4.462;2024-02-15T13:42:45;18.00;99.90
23681;DHT22;62915;50.832;4.462;2024-02-15T13:45:22;18.10;99.90
23681;DHT22;62915;50.832;4.462;2024-02-15T13:47:56;18.10;99.90
23681;DHT22;62915;50.832;4.462;2024-02-15T13:50:22;18.10;99.90
23681;DHT22;62915;50.832;4.462;2024-02-15T13:52:49;18.00;99.90
23681;DHT22;62915;50.832;4.462;2024-02-15T13:55:17;17.90;99.90
23681;DHT22;62915;50.832;4.462;2024-02-15T13:57:47;18.00;99.90
23681;DHT22;62915;50.832;4.462;2024-02-15T14:00:15;18.00;99.90
23681;DHT22;62915;50.832;4.462;2024-02-15T14:02:54;17.80;99.90
23681;DHT22;62915;50.832;4.462;2024-02-15T14:05:24;17.80;99.90
23681;DHT22;62915;50.832;4.462;2024-02-15T14:07:56;17.80;99.90
23681;DHT22;62915;50.832;4.462;2024-02-15T14:10:26;17.70;99.90
23681;DHT22;62915;50.832;4.462;2024-02-15T14:12:53;17.70;99.90
23681;DHT22;62915;50.832;4.462;2024-02-15T14:15:28;17.70;99.90
23681;DHT22;62915;50.832;4.462;2024-02-15T14:17:54;17.60;99.90
23681;DHT22;62915;50.832;4.462;2024-02-15T14:20:22;17.50;99.90
23681;DHT22;62915;50.832;4.462;2024-02-15T14:22:50;17.50;99.90
23681;DHT22;62915;50.832;4.462;2024-02-15T14:25:23;17.60;99.90
23681;DHT22;62915;50.832;4.462;2024-02-15T14:27:49;17.50;99.90
23681;DHT22;62915;50.832;4.462;2024-02-15T14:30:15;17.40;99.90
23681;DHT22;62915;50.832;4.462;2024-02-15T14:32:59;17.40;99.90
23681;DHT22;62915;50.832;4.462;2024-02-15T14:35:32;17.50;99.90
23681;DHT22;62915;50.832;4.462;2024-02-15T14:38:10;17.50;99.90
23681;DHT22;62915;50.832;4.462;2024-02-15T14:40:38;17.50;99.90
23681;DHT22;62915;50.832;4.462;2024-02-15T14:43:05;17.50;99.90
23681;DHT22;62915;50.832;4.462;2024-02-15T14:45:35;17.50;99.90
23681;DHT22;62915;50.832;4.462;2024-02-15T14:48:04;17.50;99.90
23681;DHT22;62915;50.832;4.462;2024-02-15T14:50:30;17.50;99.90
23681;DHT22;62915;50.832;4.462;2024-02-15T14:52:56;17.50;99.90
23681;DHT22;62915;50.832;4.462;2024-02-15T14:55:22;17.50;99.90
23681;DHT22;62915;50.832;4.462;2024-02-15T14:57:48;17.50;99.90
23681;DHT22;62915;50.832;4.462;2024-02-15T15:00:15;17.50;99.90
23681;DHT22;62915;50.832;4.462;2024-02-15T15:02:47;17.50;99.90
23681;DHT22;62915;50.832;4.462;2024-02-15T15:05:14;17.50;99.90
23681;DHT22;62915;50.832;4.462;2024-02-15T15:07:58;17.40;99.90
23681;DHT22;62915;50.832;4.462;2024-02-15T15:10:45;17.30;99.90
23681;DHT22;62915;50.832;4.462;2024-02-15T15:13:33;17.30;99.90
23681;DHT22;62915;50.832;4.462;2024-02-15T15:15:59;17.20;99.90
23681;DHT22;62915;50.832;4.462;2024-02-15T15:18:26;17.10;99.90
23681;DHT22;62915;50.832;4.462;2024-02-15T15:20:51;17.10;99.90
23681;DHT22;62915;50.832;4.462;2024-02-15T15:23:18;17.20;99.90
23681;DHT22;62915;50.832;4.462;2024-02-15T15:25:43;17.10;99.90
23681;DHT22;62915;50.832;4.462;2024-02-15T15:28:10;17.20;99.90
23681;DHT22;62915;50.832;4.462;2024-02-15T15:30:36;17.20;99.90
23681;DHT22;62915;50.832;4.462;2024-02-15T15:33:03;17.20;99.90
23681;DHT22;62915;50.832;4.462;2024-02-15T15:35:29;17.20;99.90
23681;DHT22;62915;50.832;4.462;2024-02-15T15:37:58;17.20;99.90
23681;DHT22;62915;50.832;4.462;2024-02-15T15:40:24;17.30;99.90
23681;DHT22;62915;50.832;4.462;2024-02-15T15:42:51;17.20;99.90
23681;DHT22;62915;50.832;4.462;2024-02-15T15:45:17;17.10;99.90
23681;DHT22;62915;50.832;4.462;2024-02-15T15:47:43;17.10;99.90
23681;DHT22;62915;50.832;4.462;2024-02-15T15:50:09;17.00;99.90